createdAt,value
2019-03-01T00:01:54.817Z,97184.48
2019-03-01T00:04:56.632Z,97186.89
2019-03-01T00:08:01.218Z,97197.14
2019-03-01T00:11:13.597Z,97189.27
2019-03-01T00:14:17.428Z,97193.55
2019-03-01T00:17:35.851Z,97191.00
2019-03-01T00:20:53.119Z,97185.05
2019-03-01T00:23:51.215Z,97180.74
2019-03-01T00:26:42.844Z,97173.95
2019-03-01T00:29:45.850Z,97177.72
2019-03-01T00:32:37.475Z,97182.73
2019-03-01T00:35:58.770Z,97169.16
2019-03-01T00:39:17.091Z,97152.75
2019-03-01T00:42:35.425Z,97139.66
2019-03-01T00:45:02.978Z,97142.19
2019-03-01T00:47:30.640Z,97137.86
2019-03-01T00:49:58.222Z,97142.42
2019-03-01T00:52:25.864Z,97138.91
2019-03-01T00:54:53.416Z,97132.84
2019-03-01T00:57:21.052Z,97133.19
2019-03-01T00:59:48.623Z,97139.62
2019-03-01T01:02:16.266Z,97140.72
2019-03-01T01:04:43.795Z,97139.91
2019-03-01T01:07:11.441Z,97136.09
2019-03-01T01:09:39.185Z,97139.24
2019-03-01T01:12:06.867Z,97129.38
2019-03-01T01:14:34.547Z,97125.06
2019-03-01T01:17:02.210Z,97130.01
2019-03-01T01:19:29.872Z,97123.66
2019-03-01T01:21:57.472Z,97122.13
2019-03-01T01:24:25.101Z,97124.33
2019-03-01T01:26:52.738Z,97122.09
2019-03-01T01:29:20.484Z,97125.27
2019-03-01T01:31:48.161Z,97124.33
2019-03-01T01:34:15.816Z,97122.52
2019-03-01T01:36:43.550Z,97122.63
2019-03-01T01:39:11.711Z,97128.17
2019-03-01T01:41:39.487Z,97124.66
2019-03-01T01:44:07.088Z,97126.36
2019-03-01T01:46:34.676Z,97116.58
2019-03-01T01:49:02.256Z,97126.24
2019-03-01T01:51:29.900Z,97130.72
2019-03-01T01:53:57.458Z,97131.54
2019-03-01T01:56:25.006Z,97127.52
2019-03-01T01:58:52.617Z,97128.20
2019-03-01T02:01:20.231Z,97132.92
2019-03-01T02:03:47.845Z,97131.80
2019-03-01T02:06:15.418Z,97138.55
2019-03-01T02:08:43.058Z,97132.67
2019-03-01T02:11:10.710Z,97131.49
2019-03-01T02:13:38.393Z,97126.41
2019-03-01T02:16:05.986Z,97136.55
2019-03-01T02:18:33.607Z,97134.73
2019-03-01T02:21:01.238Z,97130.64
2019-03-01T02:23:28.822Z,97138.55
2019-03-01T02:25:56.411Z,97132.74
2019-03-01T02:28:24.023Z,97130.20
2019-03-01T02:30:52.321Z,97135.49
2019-03-01T02:33:19.840Z,97139.67
2019-03-01T02:35:47.404Z,97132.30
2019-03-01T02:38:14.962Z,97133.88
2019-03-01T02:40:42.538Z,97139.88
2019-03-01T02:43:10.129Z,97128.88
2019-03-01T02:45:37.709Z,97127.53
2019-03-01T02:48:05.283Z,97123.92
2019-03-01T02:50:33.217Z,97120.47
2019-03-01T02:53:00.733Z,97115.86
2019-03-01T02:55:28.472Z,97107.96
2019-03-01T02:57:56.052Z,97114.20
2019-03-01T03:00:27.573Z,97121.06
2019-03-01T03:02:55.236Z,97118.97
2019-03-01T03:05:23.725Z,97108.02
2019-03-01T03:07:53.165Z,97113.53
2019-03-01T03:10:20.857Z,97109.42
2019-03-01T03:12:49.262Z,97111.16
2019-03-01T03:15:20.683Z,97110.28
2019-03-01T03:17:48.192Z,97102.50
2019-03-01T03:20:15.850Z,97102.23
2019-03-01T03:22:43.371Z,97106.28
2019-03-01T03:25:11.080Z,97113.18
2019-03-01T03:27:38.645Z,97115.70
2019-03-01T03:30:07.525Z,97115.43
2019-03-01T03:32:35.236Z,97123.39
2019-03-01T03:35:02.880Z,97115.30
2019-03-01T03:37:30.408Z,97114.61
2019-03-01T03:39:57.988Z,97117.66
2019-03-01T03:42:25.507Z,97114.09
2019-03-01T03:44:53.157Z,97116.98
2019-03-01T03:47:20.689Z,97110.33
2019-03-01T03:49:48.304Z,97115.52
2019-03-01T03:52:15.912Z,97115.83
2019-03-01T03:54:43.518Z,97114.63
2019-03-01T03:57:11.268Z,97112.28
2019-03-01T03:59:38.899Z,97114.73
2019-03-01T04:02:06.490Z,97109.75
2019-03-01T04:04:34.145Z,97107.48
2019-03-01T04:07:01.739Z,97110.61
2019-03-01T04:09:32.512Z,97103.91
2019-03-01T04:12:00.204Z,97116.65
2019-03-01T04:14:28.800Z,97114.59
2019-03-01T04:16:56.437Z,97114.91
2019-03-01T04:19:24.006Z,97110.59
2019-03-01T04:21:51.663Z,97110.53
2019-03-01T04:24:19.300Z,97116.56
2019-03-01T04:26:47.002Z,97119.16
2019-03-01T04:29:14.715Z,97123.32
2019-03-01T04:31:42.424Z,97112.73
2019-03-01T04:34:10.154Z,97115.48
2019-03-01T04:36:37.794Z,97118.67
2019-03-01T04:39:06.663Z,97112.62
2019-03-01T04:41:36.090Z,97112.75
2019-03-01T04:44:03.722Z,97101.42
2019-03-01T04:46:31.341Z,97104.30
2019-03-01T04:48:59.056Z,97104.09
2019-03-01T04:51:26.773Z,97093.69
2019-03-01T04:53:54.482Z,97090.80
2019-03-01T04:56:22.137Z,97099.45
2019-03-01T04:58:49.770Z,97101.94
2019-03-01T05:01:17.395Z,97104.12
2019-03-01T05:03:45.256Z,97113.72
2019-03-01T05:06:12.833Z,97115.48
2019-03-01T05:08:41.491Z,97114.58
2019-03-01T05:11:09.775Z,97116.17
2019-03-01T05:13:37.425Z,97121.17
2019-03-01T05:16:04.987Z,97116.27
2019-03-01T05:18:32.585Z,97138.58
2019-03-01T05:21:02.181Z,97134.98
2019-03-01T05:23:29.778Z,97141.72
2019-03-01T05:25:57.427Z,97139.64
2019-03-01T05:28:25.115Z,97145.14
2019-03-01T05:30:52.698Z,97148.31
2019-03-01T05:33:20.414Z,97147.66
2019-03-01T05:35:47.953Z,97148.03
2019-03-01T05:38:21.736Z,97137.02
2019-03-01T05:40:45.024Z,97142.78
2019-03-01T05:43:12.672Z,97143.56
2019-03-01T05:45:40.204Z,97141.52
2019-03-01T05:48:07.918Z,97142.50
2019-03-01T05:50:35.432Z,97141.70
2019-03-01T05:53:03.116Z,97150.03
2019-03-01T05:55:30.698Z,97147.28
2019-03-01T05:58:33.153Z,97151.82
2019-03-01T06:01:10.690Z,97146.97
2019-03-01T06:04:06.715Z,97152.73
2019-03-01T06:06:39.293Z,97162.94
2019-03-01T06:09:35.470Z,97155.05
2019-03-01T06:12:36.544Z,97149.77
2019-03-01T06:15:58.657Z,97156.73
2019-03-01T06:19:06.895Z,97153.92
2019-03-01T06:22:11.308Z,97158.55
2019-03-01T06:25:00.291Z,97150.73
2019-03-01T06:28:04.794Z,97155.88
2019-03-01T06:31:17.005Z,97155.89
2019-03-01T06:34:24.800Z,97164.64
2019-03-01T06:37:13.004Z,97163.58
2019-03-01T06:40:31.708Z,97178.10
2019-03-01T06:43:39.148Z,97183.39
2019-03-01T06:46:45.526Z,97183.25
2019-03-01T06:49:35.221Z,97185.78
2019-03-01T06:52:02.765Z,97180.20
2019-03-01T06:54:30.473Z,97168.50
2019-03-01T06:56:59.777Z,97176.65
2019-03-01T06:59:27.427Z,97180.78
2019-03-01T07:01:54.949Z,97183.14
2019-03-01T07:04:22.589Z,97180.07
2019-03-01T07:06:50.194Z,97184.30
2019-03-01T07:09:17.802Z,97192.42
2019-03-01T07:11:45.343Z,97188.56
2019-03-01T07:14:12.985Z,97186.75
2019-03-01T07:16:40.517Z,97177.00
2019-03-01T07:19:08.208Z,97176.84
2019-03-01T07:21:35.732Z,97159.55
2019-03-01T07:24:03.538Z,97156.87
2019-03-01T07:26:31.135Z,97156.31
2019-03-01T07:28:58.820Z,97156.86
2019-03-01T07:31:26.332Z,97157.70
2019-03-01T07:33:54.085Z,97159.04
2019-03-01T07:36:21.607Z,97149.72
2019-03-01T07:38:50.249Z,97142.00
2019-03-01T07:41:17.941Z,97145.55
2019-03-01T07:43:45.588Z,97140.27
2019-03-01T07:46:13.112Z,97143.93
2019-03-01T07:48:40.741Z,97141.75
2019-03-01T07:51:09.821Z,97143.96
2019-03-01T07:53:41.805Z,97141.81
2019-03-01T07:56:06.971Z,97143.51
2019-03-01T07:58:34.608Z,97129.61
2019-03-01T08:01:03.439Z,97118.50
2019-03-01T08:03:31.037Z,97113.30
2019-03-01T08:05:58.568Z,97122.25
2019-03-01T08:08:26.186Z,97118.63
2019-03-01T08:10:56.418Z,97110.51
2019-03-01T08:13:23.323Z,97110.80
2019-03-01T08:15:51.028Z,97107.51
2019-03-01T08:18:18.767Z,97108.84
2019-03-01T08:20:46.489Z,97107.63
2019-03-01T08:23:14.507Z,97110.66
2019-03-01T08:25:42.264Z,97110.51
2019-03-01T08:28:09.966Z,97112.66
2019-03-01T08:30:37.644Z,97106.45
2019-03-01T08:33:06.736Z,97112.11
2019-03-01T08:35:34.974Z,97113.98
2019-03-01T08:38:02.614Z,97110.55
2019-03-01T08:40:30.197Z,97117.03
2019-03-01T08:42:57.796Z,97109.48
2019-03-01T08:45:25.307Z,97105.88
2019-03-01T08:47:55.412Z,97106.06
2019-03-01T08:50:22.385Z,97102.58
2019-03-01T08:52:50.050Z,97098.48
2019-03-01T08:55:18.094Z,97093.93
2019-03-01T08:57:45.707Z,97091.66
2019-03-01T09:00:16.402Z,97093.67
2019-03-01T09:02:44.068Z,97087.19
2019-03-01T09:05:11.785Z,97092.03
2019-03-01T09:07:39.467Z,97089.08
2019-03-01T09:10:08.957Z,97087.84
2019-03-01T09:12:36.656Z,97084.02
2019-03-01T09:15:07.367Z,97084.08
2019-03-01T09:17:34.412Z,97079.66
2019-03-01T09:20:02.169Z,97078.11
2019-03-01T09:22:30.847Z,97074.96
2019-03-01T09:24:58.517Z,97073.36
2019-03-01T09:27:26.832Z,97073.56
2019-03-01T09:29:56.167Z,97070.27
2019-03-01T09:32:25.441Z,97073.87
2019-03-01T09:35:12.630Z,97062.09
2019-03-01T09:37:41.407Z,97063.38
2019-03-01T09:40:08.995Z,97063.45
2019-03-01T09:42:36.913Z,97065.13
2019-03-01T09:45:04.709Z,97070.91
2019-03-01T09:47:33.540Z,97067.66
2019-03-01T09:50:02.613Z,97069.51
2019-03-01T09:52:30.353Z,97063.89
2019-03-01T09:54:57.968Z,97077.03
2019-03-01T09:57:26.452Z,97067.80
2019-03-01T09:59:54.062Z,97062.28
2019-03-01T10:02:21.852Z,97052.94
2019-03-01T10:04:49.504Z,97042.28
2019-03-01T10:07:17.185Z,97048.63
2019-03-01T10:09:44.970Z,97047.64
2019-03-01T10:12:12.870Z,97046.53
2019-03-01T10:14:40.565Z,97042.58
2019-03-01T10:17:08.217Z,97045.49
2019-03-01T10:19:35.911Z,97034.78
2019-03-01T10:22:03.548Z,97032.92
2019-03-01T10:24:31.283Z,97033.55
2019-03-01T10:27:00.547Z,97037.25
2019-03-01T10:29:28.203Z,97035.00
2019-03-01T10:31:55.817Z,97034.43
2019-03-01T10:34:23.467Z,97030.05
2019-03-01T10:36:51.140Z,97027.75
2019-03-01T10:39:18.812Z,97029.30
2019-03-01T10:41:46.526Z,97020.52
2019-03-01T10:44:14.162Z,97015.91
2019-03-01T10:46:45.427Z,97014.56
2019-03-01T10:49:13.263Z,97014.20
2019-03-01T10:51:40.834Z,97004.91
2019-03-01T10:54:08.385Z,97009.76
2019-03-01T10:56:35.992Z,97008.56
2019-03-01T10:59:03.512Z,97004.14
2019-03-01T11:01:31.135Z,97000.50
2019-03-01T11:03:58.702Z,96993.16
2019-03-01T11:06:26.303Z,96988.02
2019-03-01T11:08:53.907Z,96990.03
2019-03-01T11:11:21.584Z,96984.47
2019-03-01T11:13:50.368Z,96989.41
2019-03-01T11:16:18.121Z,96976.45
2019-03-01T11:18:45.789Z,96974.89
2019-03-01T11:21:13.641Z,96971.14
2019-03-01T11:23:41.269Z,96965.59
2019-03-01T11:26:08.918Z,96966.39
2019-03-01T11:28:38.140Z,96959.47
2019-03-01T11:31:05.832Z,96955.77
2019-03-01T11:33:33.497Z,96958.86
2019-03-01T11:36:01.164Z,96956.79
2019-03-01T11:38:28.740Z,96948.88
2019-03-01T11:40:56.261Z,96953.13
2019-03-01T11:43:23.885Z,96950.70
2019-03-01T11:45:51.387Z,96949.81
2019-03-01T11:48:18.982Z,96945.75
2019-03-01T11:50:46.551Z,96940.98
2019-03-01T11:53:14.362Z,96933.69
2019-03-01T11:55:41.906Z,96936.11
2019-03-01T11:58:09.532Z,96931.80
2019-03-01T12:00:37.067Z,96934.55
2019-03-01T12:03:04.702Z,96938.42
2019-03-01T12:05:32.361Z,96934.20
2019-03-01T12:08:00.059Z,96940.16
2019-03-01T12:10:29.212Z,96935.72
2019-03-01T12:12:56.810Z,96934.98
2019-03-01T12:15:24.344Z,96936.20
2019-03-01T12:17:51.925Z,96934.81
2019-03-01T12:20:20.568Z,96926.36
2019-03-01T12:22:48.166Z,96922.27
2019-03-01T12:25:15.716Z,96927.16
2019-03-01T12:27:43.409Z,96919.78
2019-03-01T12:30:15.730Z,96915.02
2019-03-01T12:32:43.329Z,96915.36
2019-03-01T12:35:10.985Z,96918.31
2019-03-01T12:37:41.285Z,96915.42
2019-03-01T12:40:11.260Z,96911.36
2019-03-01T12:42:38.838Z,96916.08
2019-03-01T12:45:07.527Z,96910.56
2019-03-01T12:47:35.194Z,96907.63
2019-03-01T12:50:02.795Z,96908.45
2019-03-01T12:52:30.391Z,96910.56
2019-03-01T12:54:57.921Z,96908.61
2019-03-01T12:57:25.520Z,96914.47
2019-03-01T12:59:53.381Z,96909.13
2019-03-01T13:02:21.119Z,96907.30
2019-03-01T13:04:49.950Z,96908.16
2019-03-01T13:07:18.127Z,96917.50
2019-03-01T13:09:45.677Z,96919.95
2019-03-01T13:12:13.372Z,96918.69
2019-03-01T13:14:40.959Z,96927.61
2019-03-01T13:17:08.710Z,96926.73
2019-03-01T13:19:36.244Z,96934.91
2019-03-01T13:22:03.913Z,96931.88
2019-03-01T13:24:31.419Z,96935.56
2019-03-01T13:26:58.997Z,96935.08
2019-03-01T13:29:27.551Z,96931.57
2019-03-01T13:31:55.123Z,96928.67
2019-03-01T13:34:22.737Z,96939.81
2019-03-01T13:36:50.445Z,96935.36
2019-03-01T13:39:17.970Z,96924.90
2019-03-01T13:41:45.629Z,96918.18
2019-03-01T13:44:13.209Z,96924.13
2019-03-01T13:46:40.907Z,96912.16
2019-03-01T13:49:08.450Z,96905.11
2019-03-01T13:51:36.063Z,96899.39
2019-03-01T13:54:05.757Z,96903.92
2019-03-01T13:56:35.988Z,96891.61
2019-03-01T13:59:03.898Z,96890.03
2019-03-01T14:01:31.782Z,96887.34
2019-03-01T14:03:59.743Z,96887.02
2019-03-01T14:06:28.903Z,96884.18
2019-03-01T14:08:56.461Z,96879.48
2019-03-01T14:11:24.154Z,96880.28
2019-03-01T14:13:51.970Z,96868.66
2019-03-01T14:16:20.420Z,96871.55
2019-03-01T14:18:49.199Z,96866.77
2019-03-01T14:21:16.922Z,96867.99
2019-03-01T14:23:44.622Z,96873.44
2019-03-01T14:26:15.198Z,96873.93
2019-03-01T14:28:43.466Z,96864.86
2019-03-01T14:31:12.238Z,96859.64
2019-03-01T14:33:40.124Z,96856.34
2019-03-01T14:36:07.753Z,96856.03
2019-03-01T14:38:35.424Z,96853.20
2019-03-01T14:41:03.024Z,96848.69
2019-03-01T14:43:31.700Z,96839.39
2019-03-01T14:45:59.346Z,96840.18
2019-03-01T14:48:26.919Z,96848.07
2019-03-01T14:50:54.533Z,96847.30
2019-03-01T14:53:22.070Z,96849.81
2019-03-01T14:55:55.681Z,96850.23
2019-03-01T14:58:45.174Z,96856.28
2019-03-01T15:01:27.604Z,96864.50
2019-03-01T15:03:55.442Z,96862.00
2019-03-01T15:06:23.015Z,96862.28
2019-03-01T15:08:50.676Z,96863.19
2019-03-01T15:11:21.995Z,96864.00
2019-03-01T15:13:51.262Z,96862.58
2019-03-01T15:16:19.011Z,96867.60
2019-03-01T15:18:46.705Z,96864.00
2019-03-01T15:21:14.702Z,96863.44
2019-03-01T15:23:42.352Z,96869.52
2019-03-01T15:26:10.032Z,96873.34
2019-03-01T15:28:45.737Z,96875.09
2019-03-01T15:31:16.571Z,96876.02
2019-03-01T15:33:47.107Z,96869.56
2019-03-01T15:36:17.446Z,96872.08
2019-03-01T15:38:43.231Z,96881.06
2019-03-01T15:41:10.822Z,96882.40
2019-03-01T15:43:39.026Z,96874.03
2019-03-01T15:46:06.822Z,96880.08
2019-03-01T15:48:38.092Z,96887.91
2019-03-01T15:51:04.648Z,96893.72
2019-03-01T15:53:33.841Z,96892.33
2019-03-01T15:56:02.223Z,96893.88
2019-03-01T15:58:33.137Z,96898.77
2019-03-01T16:01:00.561Z,96901.13
2019-03-01T16:03:28.115Z,96895.02
2019-03-01T16:05:55.887Z,96897.72
2019-03-01T16:08:23.470Z,96901.79
2019-03-01T16:10:51.145Z,96909.85
2019-03-01T16:13:18.771Z,96907.38
2019-03-01T16:15:46.343Z,96914.83
2019-03-01T16:18:13.975Z,96915.93
2019-03-01T16:20:41.570Z,96921.33
2019-03-01T16:23:09.346Z,96928.69
2019-03-01T16:25:36.926Z,96935.66
2019-03-01T16:28:04.634Z,96943.33
2019-03-01T16:30:32.262Z,96932.91
2019-03-01T16:32:59.918Z,96940.62
2019-03-01T16:35:27.525Z,96943.45
2019-03-01T16:37:57.978Z,96948.33
2019-03-01T16:40:25.371Z,96946.80
2019-03-01T16:42:54.458Z,96945.74
2019-03-01T16:45:22.307Z,96954.00
2019-03-01T16:47:49.990Z,96949.86
2019-03-01T16:50:17.909Z,96946.70
2019-03-01T16:52:45.589Z,96949.48
2019-03-01T16:55:14.345Z,96950.61
2019-03-01T16:57:41.942Z,96958.61
2019-03-01T17:00:14.685Z,96966.59
2019-03-01T17:02:42.007Z,96957.45
2019-03-01T17:05:10.950Z,96967.00
2019-03-01T17:07:38.584Z,96965.05
2019-03-01T17:10:07.896Z,96972.19
2019-03-01T17:12:35.449Z,96972.91
2019-03-01T17:15:03.240Z,96973.64
2019-03-01T17:17:33.153Z,96976.39
2019-03-01T17:20:03.629Z,96977.13
2019-03-01T17:22:32.286Z,96981.11
2019-03-01T17:24:59.914Z,96986.89
2019-03-01T17:27:27.516Z,96993.97
2019-03-01T17:29:55.224Z,97000.98
2019-03-01T17:32:22.854Z,97003.81
2019-03-01T17:34:52.070Z,97008.25
2019-03-01T17:37:20.075Z,97008.86
2019-03-01T17:39:47.747Z,97005.08
2019-03-01T17:42:17.514Z,97013.03
2019-03-01T17:44:45.361Z,97011.80
2019-03-01T17:47:13.128Z,97015.55
2019-03-01T17:49:40.748Z,97020.02
2019-03-01T17:52:08.447Z,97021.18
2019-03-01T17:54:36.010Z,97018.03
2019-03-01T17:57:03.699Z,97022.84
2019-03-01T17:59:31.320Z,97030.16
2019-03-01T18:01:59.014Z,97028.36
2019-03-01T18:04:27.639Z,97029.31
2019-03-01T18:06:55.372Z,97033.00
2019-03-01T18:09:23.040Z,97028.98
2019-03-01T18:11:50.694Z,97017.62
2019-03-01T18:14:18.458Z,97024.84
2019-03-01T18:16:46.150Z,97039.50
2019-03-01T18:19:13.791Z,97034.59
2019-03-01T18:21:46.391Z,97041.27
2019-03-01T18:24:14.376Z,97044.88
2019-03-01T18:26:44.070Z,97038.70
2019-03-01T18:29:11.681Z,97043.39
2019-03-01T18:31:39.292Z,97045.63
2019-03-01T18:34:06.921Z,97046.65
2019-03-01T18:36:34.613Z,97049.88
2019-03-01T18:39:06.838Z,97059.27
2019-03-01T18:41:35.203Z,97057.12
2019-03-01T18:44:02.768Z,97069.18
2019-03-01T18:46:30.853Z,97070.89
2019-03-01T18:48:58.488Z,97087.20
2019-03-01T18:51:26.263Z,97081.58
2019-03-01T18:53:53.962Z,97088.64
2019-03-01T18:56:25.024Z,97099.43
2019-03-01T18:58:51.175Z,97095.66
2019-03-01T19:01:18.853Z,97101.36
2019-03-01T19:03:46.596Z,97107.23
2019-03-01T19:06:16.308Z,97103.20
2019-03-01T19:08:43.890Z,97103.28
2019-03-01T19:11:11.589Z,97109.11
2019-03-01T19:13:39.158Z,97113.96
2019-03-01T19:16:06.901Z,97109.55
2019-03-01T19:18:34.636Z,97111.03
2019-03-01T19:21:02.363Z,97106.52
2019-03-01T19:23:32.383Z,97101.42
2019-03-01T19:26:01.713Z,97106.73
2019-03-01T19:28:29.689Z,97118.61
2019-03-01T19:30:57.384Z,97114.48
2019-03-01T19:33:26.074Z,97111.20
2019-03-01T19:35:53.801Z,97122.10
2019-03-01T19:38:21.793Z,97117.88
2019-03-01T19:40:51.163Z,97123.75
2019-03-01T19:43:19.906Z,97133.30
2019-03-01T19:45:47.854Z,97127.64
2019-03-01T19:48:15.583Z,97129.60
2019-03-01T19:50:43.692Z,97129.72
2019-03-01T19:53:11.494Z,97134.41
2019-03-01T19:55:39.121Z,97137.89
2019-03-01T19:58:08.735Z,97137.76
2019-03-01T20:00:39.127Z,97144.33
2019-03-01T20:03:06.598Z,97149.22
2019-03-01T20:05:35.770Z,97150.08
2019-03-01T20:08:03.538Z,97153.68
2019-03-01T20:10:31.237Z,97151.02
2019-03-01T20:12:58.938Z,97155.67
2019-03-01T20:15:27.178Z,97154.02
2019-03-01T20:17:54.950Z,97161.02
2019-03-01T20:20:22.719Z,97157.93
2019-03-01T20:22:54.040Z,97150.28
2019-03-01T20:25:20.452Z,97153.08
2019-03-01T20:27:48.222Z,97154.91
2019-03-01T20:30:18.984Z,97149.86
2019-03-01T20:32:47.414Z,97146.62
2019-03-01T20:35:16.649Z,97161.28
2019-03-01T20:37:44.485Z,97159.91
2019-03-01T20:40:12.275Z,97170.28
2019-03-01T20:42:39.986Z,97167.26
2019-03-01T20:45:11.173Z,97171.36
2019-03-01T20:47:38.874Z,97173.95
2019-03-01T20:50:06.667Z,97168.31
2019-03-01T20:52:34.836Z,97171.81
2019-03-01T20:55:02.590Z,97166.83
2019-03-01T20:57:30.238Z,97171.09
2019-03-01T20:59:57.792Z,97174.28
2019-03-01T21:02:25.412Z,97172.33
2019-03-01T21:04:53.727Z,97178.28
2019-03-01T21:07:21.596Z,97188.37
2019-03-01T21:09:49.183Z,97190.03
2019-03-01T21:12:18.661Z,97188.27
2019-03-01T21:14:46.327Z,97187.19
2019-03-01T21:17:16.793Z,97186.06
2019-03-01T21:19:44.593Z,97185.21
2019-03-01T21:22:12.314Z,97195.40
2019-03-01T21:24:39.846Z,97199.23
2019-03-01T21:27:07.433Z,97199.80
2019-03-01T21:29:34.981Z,97193.30
2019-03-01T21:32:02.605Z,97202.03
2019-03-01T21:34:30.247Z,97204.05
2019-03-01T21:36:59.119Z,97203.66
2019-03-01T21:39:27.338Z,97201.17
2019-03-01T21:41:55.026Z,97200.56
2019-03-01T21:44:22.615Z,97203.72
2019-03-01T21:46:50.207Z,97199.02
2019-03-01T21:49:18.852Z,97209.68
2019-03-01T21:51:46.466Z,97203.98
2019-03-01T21:54:16.496Z,97208.57
2019-03-01T21:56:55.566Z,97209.88
2019-03-01T21:59:13.673Z,97212.02
2019-03-01T22:01:42.544Z,97221.61
2019-03-01T22:04:10.177Z,97224.08
2019-03-01T22:06:37.757Z,97217.25
2019-03-01T22:09:06.194Z,97218.23
2019-03-01T22:11:35.829Z,97219.72
2019-03-01T22:14:03.479Z,97218.30
2019-03-01T22:16:32.708Z,97207.86
2019-03-01T22:19:01.819Z,97214.66
2019-03-01T22:21:29.462Z,97221.45
2019-03-01T22:23:57.142Z,97219.91
2019-03-01T22:26:24.816Z,97221.63
2019-03-01T22:28:52.534Z,97219.34
2019-03-01T22:31:20.249Z,97220.50
2019-03-01T22:33:47.995Z,97226.87
2019-03-01T22:36:18.147Z,97236.54
2019-03-01T22:38:45.336Z,97235.39
2019-03-01T22:41:13.056Z,97232.49
2019-03-01T22:43:40.679Z,97239.67
2019-03-01T22:46:08.379Z,97238.03
2019-03-01T22:48:36.089Z,97235.95
2019-03-01T22:51:03.831Z,97228.20
2019-03-01T22:53:33.874Z,97229.13
2019-03-01T22:56:01.500Z,97225.24
2019-03-01T22:58:29.023Z,97228.22
2019-03-01T23:01:23.483Z,97221.53
2019-03-01T23:03:56.667Z,97237.28
2019-03-01T23:06:24.228Z,97232.19
2019-03-01T23:08:51.823Z,97246.75
2019-03-01T23:11:19.483Z,97248.72
2019-03-01T23:13:47.064Z,97244.99
2019-03-01T23:16:15.883Z,97250.42
2019-03-01T23:18:44.308Z,97253.78
2019-03-01T23:21:11.985Z,97258.23
2019-03-01T23:23:39.693Z,97261.33
2019-03-01T23:26:07.303Z,97262.70
2019-03-01T23:28:35.072Z,97263.77
2019-03-01T23:31:03.608Z,97267.88
2019-03-01T23:33:32.746Z,97264.67
2019-03-01T23:36:00.578Z,97270.75
2019-03-01T23:38:28.251Z,97264.19
2019-03-01T23:40:57.073Z,97267.55
2019-03-01T23:43:27.529Z,97268.67
2019-03-01T23:45:55.186Z,97255.94
2019-03-01T23:48:22.988Z,97251.66
2019-03-01T23:50:50.563Z,97259.88
2019-03-01T23:53:18.440Z,97262.09
2019-03-01T23:55:46.010Z,97256.85
2019-03-01T23:58:15.840Z,97258.67
